sensor_id;sensor_type;location;lat;lon;timestamp;temperature;humidity
19017;DHT22;9641;51.494;6.670;2023-02-01T00:00:28;5.80;99.90
19017;DHT22;9641;51.494;6.670;2023-02-01T00:02:55;5.80;99.90
19017;DHT22;9641;51.494;6.670;2023-02-01T00:05:22;5.90;99.90
19017;DHT22;9641;51.494;6.670;2023-02-01T00:07:48;5.70;99.90
19017;DHT22;9641;51.494;6.670;2023-02-01T00:10:16;5.80;99.90
19017;DHT22;9641;51.494;6.670;2023-02-01T00:12:44;5.80;99.90
19017;DHT22;9641;51.494;6.670;2023-02-01T00:15:11;5.80;99.90
19017;DHT22;9641;51.494;6.670;2023-02-01T00:17:38;5.90;99.90
19017;DHT22;9641;51.494;6.670;2023-02-01T00:20:06;5.90;99.90
19017;DHT22;9641;51.494;6.670;2023-02-01T00:22:33;5.90;86.80
19017;DHT22;9641;51.494;6.670;2023-02-01T00:25:00;5.90;93.60
19017;DHT22;9641;51.494;6.670;2023-02-01T00:27:27;5.90;79.20
19017;DHT22;9641;51.494;6.670;2023-02-01T00:29:55;5.90;64.90
19017;DHT22;9641;51.494;6.670;2023-02-01T00:32:22;5.90;87.30
19017;DHT22;9641;51.494;6.670;2023-02-01T00:34:49;5.80;90.00
19017;DHT22;9641;51.494;6.670;2023-02-01T00:37:16;5.90;90.20
19017;DHT22;9641;51.494;6.670;2023-02-01T00:39:43;5.90;91.10
19017;DHT22;9641;51.494;6.670;2023-02-01T00:42:09;5.90;96.90
19017;DHT22;9641;51.494;6.670;2023-02-01T00:44:36;5.90;99.90
19017;DHT22;9641;51.494;6.670;2023-02-01T00:47:04;5.90;99.90
19017;DHT22;9641;51.494;6.670;2023-02-01T00:49:31;5.90;99.90
19017;DHT22;9641;51.494;6.670;2023-02-01T00:51:58;6.00;99.90
19017;DHT22;9641;51.494;6.670;2023-02-01T00:54:25;6.00;99.90
19017;DHT22;9641;51.494;6.670;2023-02-01T00:56:51;6.10;99.90
19017;DHT22;9641;51.494;6.670;2023-02-01T00:59:18;6.10;99.90
19017;DHT22;9641;51.494;6.670;2023-02-01T01:01:45;6.10;99.90
19017;DHT22;9641;51.494;6.670;2023-02-01T01:04:13;6.10;99.90
19017;DHT22;9641;51.494;6.670;2023-02-01T01:06:40;6.20;99.90
19017;DHT22;9641;51.494;6.670;2023-02-01T01:09:07;6.30;99.90
19017;DHT22;9641;51.494;6.670;2023-02-01T01:11:36;6.30;99.90
19017;DHT22;9641;51.494;6.670;2023-02-01T01:14:06;6.30;99.90
19017;DHT22;9641;51.494;6.670;2023-02-01T01:16:35;6.20;99.90
19017;DHT22;9641;51.494;6.670;2023-02-01T01:19:02;6.20;99.90
19017;DHT22;9641;51.494;6.670;2023-02-01T01:21:31;6.20;99.90
19017;DHT22;9641;51.494;6.670;2023-02-01T01:23:58;6.30;99.90
19017;DHT22;9641;51.494;6.670;2023-02-01T01:26:27;6.30;99.90
19017;DHT22;9641;51.494;6.670;2023-02-01T01:28:55;6.30;99.90
19017;DHT22;9641;51.494;6.670;2023-02-01T01:31:23;6.20;99.90
19017;DHT22;9641;51.494;6.670;2023-02-01T01:33:50;6.20;99.90
19017;DHT22;9641;51.494;6.670;2023-02-01T01:36:18;6.20;99.90
19017;DHT22;9641;51.494;6.670;2023-02-01T01:38:47;6.20;99.90
19017;DHT22;9641;51.494;6.670;2023-02-01T01:41:16;6.20;99.90
19017;DHT22;9641;51.494;6.670;2023-02-01T01:43:48;6.20;99.90
19017;DHT22;9641;51.494;6.670;2023-02-01T01:46:18;6.20;99.90
19017;DHT22;9641;51.494;6.670;2023-02-01T01:48:48;6.20;99.90
19017;DHT22;9641;51.494;6.670;2023-02-01T01:51:20;6.10;99.90
19017;DHT22;9641;51.494;6.670;2023-02-01T01:53:55;6.10;96.70
19017;DHT22;9641;51.494;6.670;2023-02-01T01:56:25;6.10;90.20
19017;DHT22;9641;51.494;6.670;2023-02-01T01:58:53;6.10;86.10
19017;DHT22;9641;51.494;6.670;2023-02-01T02:01:21;6.10;73.60
19017;DHT22;9641;51.494;6.670;2023-02-01T02:03:48;6.10;38.50
19017;DHT22;9641;51.494;6.670;2023-02-01T02:06:22;6.10;42.90
19017;DHT22;9641;51.494;6.670;2023-02-01T02:08:55;6.00;26.40
19017;DHT22;9641;51.494;6.670;2023-02-01T02:11:21;6.00;13.90
19017;DHT22;9641;51.494;6.670;2023-02-01T02:13:50;5.90;7.70
19017;DHT22;9641;51.494;6.670;2023-02-01T02:16:39;5.90;19.40
19017;DHT22;9641;51.494;6.670;2023-02-01T02:19:28;5.80;6.80
19017;DHT22;9641;51.494;6.670;2023-02-01T02:22:23;5.80;1.00
19017;DHT22;9641;51.494;6.670;2023-02-01T02:27:55;5.70;7.20
19017;DHT22;9641;51.494;6.670;2023-02-01T02:30:40;5.70;1.00
19017;DHT22;9641;51.494;6.670;2023-02-01T02:33:40;5.60;3.40
19017;DHT22;9641;51.494;6.670;2023-02-01T02:36:10;5.60;1.00
19017;DHT22;9641;51.494;6.670;2023-02-01T02:38:44;5.50;1.00
19017;DHT22;9641;51.494;6.670;2023-02-01T02:41:17;5.50;1.00
19017;DHT22;9641;51.494;6.670;2023-02-01T02:44:11;5.50;1.00
19017;DHT22;9641;51.494;6.670;2023-02-01T02:47:02;5.40;1.00
19017;DHT22;9641;51.494;6.670;2023-02-01T02:49:54;5.40;2.30
19017;DHT22;9641;51.494;6.670;2023-02-01T02:52:38;5.30;9.80
19017;DHT22;9641;51.494;6.670;2023-02-01T02:55:27;5.40;1.00
19017;DHT22;9641;51.494;6.670;2023-02-01T02:57:56;5.30;1.00
19017;DHT22;9641;51.494;6.670;2023-02-01T03:00:42;5.30;2.90
19017;DHT22;9641;51.494;6.670;2023-02-01T03:03:28;5.30;1.00
19017;DHT22;9641;51.494;6.670;2023-02-01T03:06:15;5.30;1.00
19017;DHT22;9641;51.494;6.670;2023-02-01T03:08:43;5.40;1.00
19017;DHT22;9641;51.494;6.670;2023-02-01T03:11:13;5.40;1.00
19017;DHT22;9641;51.494;6.670;2023-02-01T03:13:45;5.40;1.00
19017;DHT22;9641;51.494;6.670;2023-02-01T03:16:15;5.40;1.00
19017;DHT22;9641;51.494;6.670;2023-02-01T03:18:49;5.50;1.10
19017;DHT22;9641;51.494;6.670;2023-02-01T03:21:22;5.50;1.00
19017;DHT22;9641;51.494;6.670;2023-02-01T03:23:52;5.60;1.00
19017;DHT22;9641;51.494;6.670;2023-02-01T03:26:20;5.60;1.00
19017;DHT22;9641;51.494;6.670;2023-02-01T03:28:54;5.60;1.00
19017;DHT22;9641;51.494;6.670;2023-02-01T03:31:22;5.70;1.90
19017;DHT22;9641;51.494;6.670;2023-02-01T03:33:50;5.60;11.20
19017;DHT22;9641;51.494;6.670;2023-02-01T03:36:25;5.60;12.70
19017;DHT22;9641;51.494;6.670;2023-02-01T03:39:00;5.60;27.90
19017;DHT22;9641;51.494;6.670;2023-02-01T03:41:35;5.70;27.80
19017;DHT22;9641;51.494;6.670;2023-02-01T03:44:08;5.70;23.40
19017;DHT22;9641;51.494;6.670;2023-02-01T03:46:41;5.70;25.90
19017;DHT22;9641;51.494;6.670;2023-02-01T03:49:18;5.80;18.40
19017;DHT22;9641;51.494;6.670;2023-02-01T03:51:49;5.80;17.40
19017;DHT22;9641;51.494;6.670;2023-02-01T03:54:17;5.90;16.50
19017;DHT22;9641;51.494;6.670;2023-02-01T03:56:47;5.80;9.10
19017;DHT22;9641;51.494;6.670;2023-02-01T03:59:14;5.80;9.50
19017;DHT22;9641;51.494;6.670;2023-02-01T04:01:41;5.80;8.70
19017;DHT22;9641;51.494;6.670;2023-02-01T04:04:08;5.80;12.90
19017;DHT22;9641;51.494;6.670;2023-02-01T04:06:37;5.70;29.20
19017;DHT22;9641;51.494;6.670;2023-02-01T04:09:06;5.60;52.20
19017;DHT22;9641;51.494;6.670;2023-02-01T04:11:32;5.60;64.20
19017;DHT22;9641;51.494;6.670;2023-02-01T04:13:59;5.60;74.90
19017;DHT22;9641;51.494;6.670;2023-02-01T04:16:30;5.60;76.80
19017;DHT22;9641;51.494;6.670;2023-02-01T04:18:57;5.60;70.60
19017;DHT22;9641;51.494;6.670;2023-02-01T04:21:24;5.60;79.80
19017;DHT22;9641;51.494;6.670;2023-02-01T04:23:51;5.60;89.00
19017;DHT22;9641;51.494;6.670;2023-02-01T04:26:20;5.60;86.80
19017;DHT22;9641;51.494;6.670;2023-02-01T04:28:48;5.60;89.00
19017;DHT22;9641;51.494;6.670;2023-02-01T04:31:15;5.70;78.50
19017;DHT22;9641;51.494;6.670;2023-02-01T04:33:44;5.70;79.80
19017;DHT22;9641;51.494;6.670;2023-02-01T04:36:11;5.60;92.00
19017;DHT22;9641;51.494;6.670;2023-02-01T04:38:37;5.60;97.00
19017;DHT22;9641;51.494;6.670;2023-02-01T04:41:04;5.70;95.10
19017;DHT22;9641;51.494;6.670;2023-02-01T04:43:32;5.70;87.90
19017;DHT22;9641;51.494;6.670;2023-02-01T04:45:59;5.80;83.90
19017;DHT22;9641;51.494;6.670;2023-02-01T04:48:26;5.60;97.70
19017;DHT22;9641;51.494;6.670;2023-02-01T04:50:53;5.60;99.90
19017;DHT22;9641;51.494;6.670;2023-02-01T04:53:21;5.60;99.90
19017;DHT22;9641;51.494;6.670;2023-02-01T04:55:49;5.50;99.90
19017;DHT22;9641;51.494;6.670;2023-02-01T04:58:16;5.50;99.90
19017;DHT22;9641;51.494;6.670;2023-02-01T05:00:44;5.40;99.90
19017;DHT22;9641;51.494;6.670;2023-02-01T05:03:11;5.40;99.90
19017;DHT22;9641;51.494;6.670;2023-02-01T05:05:38;5.40;99.90
19017;DHT22;9641;51.494;6.670;2023-02-01T05:08:05;5.40;99.90
19017;DHT22;9641;51.494;6.670;2023-02-01T05:10:32;5.40;99.90
19017;DHT22;9641;51.494;6.670;2023-02-01T05:12:58;5.40;99.90
19017;DHT22;9641;51.494;6.670;2023-02-01T05:15:44;5.30;99.90
19017;DHT22;9641;51.494;6.670;2023-02-01T05:18:12;5.30;99.90
19017;DHT22;9641;51.494;6.670;2023-02-01T05:20:38;5.30;99.90
19017;DHT22;9641;51.494;6.670;2023-02-01T05:23:05;5.20;99.90
19017;DHT22;9641;51.494;6.670;2023-02-01T05:25:32;5.20;99.90
19017;DHT22;9641;51.494;6.670;2023-02-01T05:27:59;5.20;99.90
19017;DHT22;9641;51.494;6.670;2023-02-01T05:30:26;5.20;99.90
19017;DHT22;9641;51.494;6.670;2023-02-01T05:32:54;5.20;99.90
19017;DHT22;9641;51.494;6.670;2023-02-01T05:35:21;5.20;99.90
19017;DHT22;9641;51.494;6.670;2023-02-01T05:37:48;5.20;99.90
19017;DHT22;9641;51.494;6.670;2023-02-01T05:40:15;5.20;99.90
19017;DHT22;9641;51.494;6.670;2023-02-01T05:42:42;5.10;99.90
19017;DHT22;9641;51.494;6.670;2023-02-01T05:45:09;5.20;99.90
19017;DHT22;9641;51.494;6.670;2023-02-01T05:47:36;5.10;99.90
19017;DHT22;9641;51.494;6.670;2023-02-01T05:50:06;5.10;99.90
19017;DHT22;9641;51.494;6.670;2023-02-01T05:52:33;5.20;99.90
19017;DHT22;9641;51.494;6.670;2023-02-01T05:55:00;5.20;99.90
19017;DHT22;9641;51.494;6.670;2023-02-01T05:57:27;5.20;99.90
19017;DHT22;9641;51.494;6.670;2023-02-01T05:59:54;5.30;99.90
19017;DHT22;9641;51.494;6.670;2023-02-01T06:02:21;5.40;99.90
19017;DHT22;9641;51.494;6.670;2023-02-01T06:04:49;5.40;99.90
19017;DHT22;9641;51.494;6.670;2023-02-01T06:07:18;5.50;99.90
19017;DHT22;9641;51.494;6.670;2023-02-01T06:09:44;5.50;99.90
19017;DHT22;9641;51.494;6.670;2023-02-01T06:12:11;5.60;99.90
19017;DHT22;9641;51.494;6.670;2023-02-01T06:14:39;5.60;99.90
19017;DHT22;9641;51.494;6.670;2023-02-01T06:17:06;5.60;99.90
19017;DHT22;9641;51.494;6.670;2023-02-01T06:19:33;5.60;99.90
19017;DHT22;9641;51.494;6.670;2023-02-01T06:22:00;5.70;99.90
19017;DHT22;9641;51.494;6.670;2023-02-01T06:24:28;5.70;99.90
19017;DHT22;9641;51.494;6.670;2023-02-01T06:26:55;5.70;99.90
19017;DHT22;9641;51.494;6.670;2023-02-01T06:29:22;5.70;99.90
19017;DHT22;9641;51.494;6.670;2023-02-01T06:31:49;5.70;99.90
19017;DHT22;9641;51.494;6.670;2023-02-01T06:34:17;5.70;97.00
19017;DHT22;9641;51.494;6.670;2023-02-01T06:36:44;5.80;93.70
19017;DHT22;9641;51.494;6.670;2023-02-01T06:39:10;5.80;93.20
19017;DHT22;9641;51.494;6.670;2023-02-01T06:41:42;5.80;95.50
19017;DHT22;9641;51.494;6.670;2023-02-01T06:44:09;5.80;86.40
19017;DHT22;9641;51.494;6.670;2023-02-01T06:46:36;5.80;87.50
19017;DHT22;9641;51.494;6.670;2023-02-01T06:49:03;5.80;87.20
19017;DHT22;9641;51.494;6.670;2023-02-01T06:51:30;5.80;85.50
19017;DHT22;9641;51.494;6.670;2023-02-01T06:53:57;5.80;82.30
19017;DHT22;9641;51.494;6.670;2023-02-01T06:56:24;5.90;84.50
19017;DHT22;9641;51.494;6.670;2023-02-01T06:58:53;5.90;77.60
19017;DHT22;9641;51.494;6.670;2023-02-01T07:01:20;5.90;78.30
19017;DHT22;9641;51.494;6.670;2023-02-01T07:03:48;5.90;70.60
19017;DHT22;9641;51.494;6.670;2023-02-01T07:06:16;5.90;74.30
19017;DHT22;9641;51.494;6.670;2023-02-01T07:08:43;5.90;85.90
19017;DHT22;9641;51.494;6.670;2023-02-01T07:11:12;5.90;77.00
19017;DHT22;9641;51.494;6.670;2023-02-01T07:13:39;5.90;74.60
19017;DHT22;9641;51.494;6.670;2023-02-01T07:16:10;5.90;66.30
19017;DHT22;9641;51.494;6.670;2023-02-01T07:18:37;6.00;63.20
19017;DHT22;9641;51.494;6.670;2023-02-01T07:21:04;5.90;67.10
19017;DHT22;9641;51.494;6.670;2023-02-01T07:23:31;5.90;72.50
19017;DHT22;9641;51.494;6.670;2023-02-01T07:26:00;5.90;79.90
19017;DHT22;9641;51.494;6.670;2023-02-01T07:28:28;5.90;88.30
19017;DHT22;9641;51.494;6.670;2023-02-01T07:31:02;6.00;90.10
19017;DHT22;9641;51.494;6.670;2023-02-01T07:33:30;5.90;94.30
19017;DHT22;9641;51.494;6.670;2023-02-01T07:35:57;6.00;94.90
19017;DHT22;9641;51.494;6.670;2023-02-01T07:38:24;6.00;90.20
19017;DHT22;9641;51.494;6.670;2023-02-01T07:40:50;6.00;89.10
19017;DHT22;9641;51.494;6.670;2023-02-01T07:43:17;6.00;99.90
19017;DHT22;9641;51.494;6.670;2023-02-01T07:45:50;5.90;99.90
19017;DHT22;9641;51.494;6.670;2023-02-01T07:48:17;6.00;99.90
19017;DHT22;9641;51.494;6.670;2023-02-01T07:50:45;6.00;99.90
19017;DHT22;9641;51.494;6.670;2023-02-01T07:53:12;6.00;99.90
19017;DHT22;9641;51.494;6.670;2023-02-01T07:55:39;6.00;98.20
19017;DHT22;9641;51.494;6.670;2023-02-01T07:58:06;6.00;99.90
19017;DHT22;9641;51.494;6.670;2023-02-01T08:00:33;5.90;99.90
19017;DHT22;9641;51.494;6.670;2023-02-01T08:03:18;5.90;99.90
19017;DHT22;9641;51.494;6.670;2023-02-01T08:05:46;5.90;99.90
19017;DHT22;9641;51.494;6.670;2023-02-01T08:08:13;5.90;99.90
19017;DHT22;9641;51.494;6.670;2023-02-01T08:10:41;5.90;99.90
19017;DHT22;9641;51.494;6.670;2023-02-01T08:13:13;5.90;99.90
19017;DHT22;9641;51.494;6.670;2023-02-01T08:15:40;6.00;99.90
19017;DHT22;9641;51.494;6.670;2023-02-01T08:18:07;6.00;99.90
19017;DHT22;9641;51.494;6.670;2023-02-01T08:20:35;6.00;99.90
19017;DHT22;9641;51.494;6.670;2023-02-01T08:23:07;6.00;99.90
19017;DHT22;9641;51.494;6.670;2023-02-01T08:25:34;6.00;99.90
19017;DHT22;9641;51.494;6.670;2023-02-01T08:28:01;5.90;99.90
19017;DHT22;9641;51.494;6.670;2023-02-01T08:30:28;6.00;99.90
19017;DHT22;9641;51.494;6.670;2023-02-01T08:32:55;6.00;99.90
19017;DHT22;9641;51.494;6.670;2023-02-01T08:35:22;6.00;99.90
19017;DHT22;9641;51.494;6.670;2023-02-01T08:37:49;6.10;96.90
19017;DHT22;9641;51.494;6.670;2023-02-01T08:40:18;6.10;94.90
19017;DHT22;9641;51.494;6.670;2023-02-01T08:42:47;6.10;87.80
19017;DHT22;9641;51.494;6.670;2023-02-01T08:45:21;6.20;86.50
19017;DHT22;9641;51.494;6.670;2023-02-01T08:47:49;6.30;83.20
19017;DHT22;9641;51.494;6.670;2023-02-01T08:50:17;6.30;68.10
19017;DHT22;9641;51.494;6.670;2023-02-01T08:52:44;6.30;47.90
19017;DHT22;9641;51.494;6.670;2023-02-01T08:55:12;6.40;44.30
19017;DHT22;9641;51.494;6.670;2023-02-01T08:57:41;6.30;39.30
19017;DHT22;9641;51.494;6.670;2023-02-01T09:00:12;6.30;45.70
19017;DHT22;9641;51.494;6.670;2023-02-01T09:02:39;6.40;43.80
19017;DHT22;9641;51.494;6.670;2023-02-01T09:05:06;6.50;28.20
19017;DHT22;9641;51.494;6.670;2023-02-01T09:07:34;6.40;35.30
19017;DHT22;9641;51.494;6.670;2023-02-01T09:10:01;6.30;24.40
19017;DHT22;9641;51.494;6.670;2023-02-01T09:12:28;6.30;31.00
19017;DHT22;9641;51.494;6.670;2023-02-01T09:14:57;6.30;43.50
19017;DHT22;9641;51.494;6.670;2023-02-01T09:17:25;6.30;38.40
19017;DHT22;9641;51.494;6.670;2023-02-01T09:19:52;6.40;37.00
19017;DHT22;9641;51.494;6.670;2023-02-01T09:22:19;6.50;26.40
19017;DHT22;9641;51.494;6.670;2023-02-01T09:24:46;6.40;15.30
19017;DHT22;9641;51.494;6.670;2023-02-01T09:27:13;6.40;8.90
19017;DHT22;9641;51.494;6.670;2023-02-01T09:29:40;6.40;11.70
19017;DHT22;9641;51.494;6.670;2023-02-01T09:32:08;6.50;16.60
19017;DHT22;9641;51.494;6.670;2023-02-01T09:34:35;6.60;1.00
19017;DHT22;9641;51.494;6.670;2023-02-01T09:37:02;6.70;1.00
19017;DHT22;9641;51.494;6.670;2023-02-01T09:39:29;6.70;1.00
19017;DHT22;9641;51.494;6.670;2023-02-01T09:42:08;6.70;1.00
19017;DHT22;9641;51.494;6.670;2023-02-01T09:44:57;6.80;1.00
19017;DHT22;9641;51.494;6.670;2023-02-01T09:47:27;6.80;1.00
19017;DHT22;9641;51.494;6.670;2023-02-01T09:50:00;6.90;1.00
19017;DHT22;9641;51.494;6.670;2023-02-01T09:52:43;7.00;1.00
19017;DHT22;9641;51.494;6.670;2023-02-01T09:55:13;7.00;1.00
19017;DHT22;9641;51.494;6.670;2023-02-01T09:57:45;7.00;1.00
19017;DHT22;9641;51.494;6.670;2023-02-01T10:00:20;7.10;1.00
19017;DHT22;9641;51.494;6.670;2023-02-01T10:02:51;7.10;1.00
19017;DHT22;9641;51.494;6.670;2023-02-01T10:05:29;7.10;1.00
19017;DHT22;9641;51.494;6.670;2023-02-01T10:08:03;7.20;1.00
19017;DHT22;9641;51.494;6.670;2023-02-01T10:10:37;7.40;1.00
19017;DHT22;9641;51.494;6.670;2023-02-01T10:16:10;7.60;1.00
19017;DHT22;9641;51.494;6.670;2023-02-01T10:18:55;7.60;1.00
19017;DHT22;9641;51.494;6.670;2023-02-01T10:21:34;7.50;1.00
19017;DHT22;9641;51.494;6.670;2023-02-01T10:24:28;7.60;1.00
19017;DHT22;9641;51.494;6.670;2023-02-01T10:27:02;7.70;1.00
19017;DHT22;9641;51.494;6.670;2023-02-01T10:29:34;7.70;1.00
19017;DHT22;9641;51.494;6.670;2023-02-01T10:32:03;7.60;1.00
19017;DHT22;9641;51.494;6.670;2023-02-01T10:34:36;7.50;1.00
19017;DHT22;9641;51.494;6.670;2023-02-01T10:37:15;7.40;1.00
19017;DHT22;9641;51.494;6.670;2023-02-01T10:39:46;7.50;1.00
19017;DHT22;9641;51.494;6.670;2023-02-01T10:42:14;7.60;1.00
19017;DHT22;9641;51.494;6.670;2023-02-01T10:44:43;7.60;1.00
19017;DHT22;9641;51.494;6.670;2023-02-01T10:47:15;7.60;1.00
19017;DHT22;9641;51.494;6.670;2023-02-01T10:49:54;7.60;1.00
19017;DHT22;9641;51.494;6.670;2023-02-01T10:52:31;7.50;1.00
19017;DHT22;9641;51.494;6.670;2023-02-01T10:55:33;7.50;1.00
19017;DHT22;9641;51.494;6.670;2023-02-01T10:58:05;7.50;1.00
19017;DHT22;9641;51.494;6.670;2023-02-01T11:00:43;7.60;1.00
19017;DHT22;9641;51.494;6.670;2023-02-01T11:03:22;7.80;1.00
19017;DHT22;9641;51.494;6.670;2023-02-01T11:05:56;8.20;1.00
19017;DHT22;9641;51.494;6.670;2023-02-01T11:08:23;8.20;1.00
19017;DHT22;9641;51.494;6.670;2023-02-01T11:10:57;8.00;1.00
19017;DHT22;9641;51.494;6.670;2023-02-01T11:13:29;7.90;1.00
19017;DHT22;9641;51.494;6.670;2023-02-01T11:15:57;7.80;1.00
19017;DHT22;9641;51.494;6.670;2023-02-01T11:18:27;7.80;1.00
19017;DHT22;9641;51.494;6.670;2023-02-01T11:20:56;7.80;1.00
19017;DHT22;9641;51.494;6.670;2023-02-01T11:23:24;7.80;1.00
19017;DHT22;9641;51.494;6.670;2023-02-01T11:25:55;7.70;1.00
19017;DHT22;9641;51.494;6.670;2023-02-01T11:28:24;7.80;1.00
19017;DHT22;9641;51.494;6.670;2023-02-01T11:30:54;7.80;1.00
19017;DHT22;9641;51.494;6.670;2023-02-01T11:33:26;7.80;1.00
19017;DHT22;9641;51.494;6.670;2023-02-01T11:35:57;7.70;1.00
19017;DHT22;9641;51.494;6.670;2023-02-01T11:38:28;7.70;1.00
19017;DHT22;9641;51.494;6.670;2023-02-01T11:40:55;7.70;1.00
19017;DHT22;9641;51.494;6.670;2023-02-01T11:43:37;7.60;1.00
19017;DHT22;9641;51.494;6.670;2023-02-01T11:46:17;7.40;14.20
19017;DHT22;9641;51.494;6.670;2023-02-01T11:48:52;7.20;72.30
19017;DHT22;9641;51.494;6.670;2023-02-01T11:51:37;7.00;99.90
19017;DHT22;9641;51.494;6.670;2023-02-01T11:54:19;6.90;99.90
19017;DHT22;9641;51.494;6.670;2023-02-01T11:56:59;6.80;99.90
19017;DHT22;9641;51.494;6.670;2023-02-01T11:59:44;6.80;99.90
19017;DHT22;9641;51.494;6.670;2023-02-01T12:02:35;6.80;99.90
19017;DHT22;9641;51.494;6.670;2023-02-01T12:05:25;6.80;99.90
19017;DHT22;9641;51.494;6.670;2023-02-01T12:08:08;6.80;99.90
19017;DHT22;9641;51.494;6.670;2023-02-01T12:10:44;7.00;82.30
19017;DHT22;9641;51.494;6.670;2023-02-01T12:13:21;7.00;36.70
19017;DHT22;9641;51.494;6.670;2023-02-01T12:16:01;7.10;20.70
19017;DHT22;9641;51.494;6.670;2023-02-01T12:18:53;7.30;1.00
19017;DHT22;9641;51.494;6.670;2023-02-01T12:21:28;7.30;1.00
19017;DHT22;9641;51.494;6.670;2023-02-01T12:24:35;7.50;1.00
19017;DHT22;9641;51.494;6.670;2023-02-01T12:27:15;7.60;1.00
19017;DHT22;9641;51.494;6.670;2023-02-01T12:29:53;7.60;1.00
19017;DHT22;9641;51.494;6.670;2023-02-01T12:32:39;7.70;1.00
19017;DHT22;9641;51.494;6.670;2023-02-01T12:35:17;7.80;1.00
19017;DHT22;9641;51.494;6.670;2023-02-01T12:38:02;7.80;99.90
19017;DHT22;9641;51.494;6.670;2023-02-01T12:40:47;7.80;99.90
19017;DHT22;9641;51.494;6.670;2023-02-01T12:43:17;7.90;99.90
19017;DHT22;9641;51.494;6.670;2023-02-01T12:45:49;8.00;92.80
19017;DHT22;9641;51.494;6.670;2023-02-01T12:48:31;8.00;99.90
19017;DHT22;9641;51.494;6.670;2023-02-01T12:51:02;8.10;99.90
19017;DHT22;9641;51.494;6.670;2023-02-01T12:53:35;7.90;1.00
19017;DHT22;9641;51.494;6.670;2023-02-01T12:56:10;7.70;1.00
19017;DHT22;9641;51.494;6.670;2023-02-01T12:58:43;7.50;1.00
19017;DHT22;9641;51.494;6.670;2023-02-01T13:01:15;7.40;1.00
19017;DHT22;9641;51.494;6.670;2023-02-01T13:03:52;7.30;1.00
19017;DHT22;9641;51.494;6.670;2023-02-01T13:06:24;7.20;1.00
19017;DHT22;9641;51.494;6.670;2023-02-01T13:08:57;7.20;1.00
19017;DHT22;9641;51.494;6.670;2023-02-01T13:11:31;7.30;1.00
19017;DHT22;9641;51.494;6.670;2023-02-01T13:14:02;7.40;1.00
19017;DHT22;9641;51.494;6.670;2023-02-01T13:16:32;7.50;1.00
19017;DHT22;9641;51.494;6.670;2023-02-01T13:19:05;7.50;1.00
19017;DHT22;9641;51.494;6.670;2023-02-01T13:21:39;7.60;1.00
19017;DHT22;9641;51.494;6.670;2023-02-01T13:24:23;7.70;1.00
19017;DHT22;9641;51.494;6.670;2023-02-01T13:26:54;7.80;1.00
19017;DHT22;9641;51.494;6.670;2023-02-01T13:29:23;7.80;1.00
19017;DHT22;9641;51.494;6.670;2023-02-01T13:32:09;7.90;1.00
19017;DHT22;9641;51.494;6.670;2023-02-01T13:34:58;8.00;1.00
19017;DHT22;9641;51.494;6.670;2023-02-01T13:40:37;8.00;1.00
19017;DHT22;9641;51.494;6.670;2023-02-01T13:43:11;8.10;1.00
19017;DHT22;9641;51.494;6.670;2023-02-01T13:45:44;8.20;99.90
19017;DHT22;9641;51.494;6.670;2023-02-01T13:48:21;8.10;1.00
19017;DHT22;9641;51.494;6.670;2023-02-01T13:50:52;8.10;99.90
19017;DHT22;9641;51.494;6.670;2023-02-01T13:53:25;8.10;99.90
19017;DHT22;9641;51.494;6.670;2023-02-01T13:55:57;8.20;99.90
19017;DHT22;9641;51.494;6.670;2023-02-01T13:58:33;8.20;99.90
19017;DHT22;9641;51.494;6.670;2023-02-01T14:01:33;8.40;99.90
19017;DHT22;9641;51.494;6.670;2023-02-01T14:04:04;8.40;99.90
19017;DHT22;9641;51.494;6.670;2023-02-01T14:06:44;8.40;1.00
19017;DHT22;9641;51.494;6.670;2023-02-01T14:09:33;8.40;1.00
19017;DHT22;9641;51.494;6.670;2023-02-01T14:15:25;8.40;1.00
19017;DHT22;9641;51.494;6.670;2023-02-01T14:17:53;8.40;1.00
19017;DHT22;9641;51.494;6.670;2023-02-01T14:20:45;8.40;1.00
19017;DHT22;9641;51.494;6.670;2023-02-01T14:23:37;8.50;1.00
19017;DHT22;9641;51.494;6.670;2023-02-01T14:26:14;8.50;1.00
19017;DHT22;9641;51.494;6.670;2023-02-01T14:28:49;8.50;1.00
19017;DHT22;9641;51.494;6.670;2023-02-01T14:31:50;8.60;1.00
19017;DHT22;9641;51.494;6.670;2023-02-01T14:34:22;8.60;99.90
19017;DHT22;9641;51.494;6.670;2023-02-01T14:36:56;8.60;84.10
19017;DHT22;9641;51.494;6.670;2023-02-01T14:39:36;8.60;99.90
19017;DHT22;9641;51.494;6.670;2023-02-01T14:42:13;8.50;1.00
19017;DHT22;9641;51.494;6.670;2023-02-01T14:44:42;8.50;99.90
19017;DHT22;9641;51.494;6.670;2023-02-01T14:47:27;8.50;31.80
19017;DHT22;9641;51.494;6.670;2023-02-01T14:49:58;8.50;99.90
19017;DHT22;9641;51.494;6.670;2023-02-01T14:52:32;8.50;1.00
19017;DHT22;9641;51.494;6.670;2023-02-01T14:55:04;8.40;1.00
19017;DHT22;9641;51.494;6.670;2023-02-01T14:57:34;8.40;99.90
19017;DHT22;9641;51.494;6.670;2023-02-01T15:00:11;8.40;1.00
19017;DHT22;9641;51.494;6.670;2023-02-01T15:02:43;8.40;1.00
19017;DHT22;9641;51.494;6.670;2023-02-01T15:05:30;8.50;1.00
19017;DHT22;9641;51.494;6.670;2023-02-01T15:08:03;8.50;99.90
19017;DHT22;9641;51.494;6.670;2023-02-01T15:10:32;8.50;99.90
19017;DHT22;9641;51.494;6.670;2023-02-01T15:13:07;8.50;1.00
19017;DHT22;9641;51.494;6.670;2023-02-01T15:15:39;8.60;1.00
19017;DHT22;9641;51.494;6.670;2023-02-01T15:18:16;8.60;33.50
19017;DHT22;9641;51.494;6.670;2023-02-01T15:20:56;8.50;99.90
19017;DHT22;9641;51.494;6.670;2023-02-01T15:23:23;8.50;1.00
19017;DHT22;9641;51.494;6.670;2023-02-01T15:25:50;8.60;99.90
19017;DHT22;9641;51.494;6.670;2023-02-01T15:28:17;8.50;1.00
19017;DHT22;9641;51.494;6.670;2023-02-01T15:30:53;8.50;99.90
19017;DHT22;9641;51.494;6.670;2023-02-01T15:33:22;8.40;1.00
19017;DHT22;9641;51.494;6.670;2023-02-01T15:35:50;8.40;1.00
19017;DHT22;9641;51.494;6.670;2023-02-01T15:38:20;8.40;99.90
19017;DHT22;9641;51.494;6.670;2023-02-01T15:40:54;8.50;1.00
19017;DHT22;9641;51.494;6.670;2023-02-01T15:43:22;8.40;1.00
19017;DHT22;9641;51.494;6.670;2023-02-01T15:45:50;8.40;1.00
19017;DHT22;9641;51.494;6.670;2023-02-01T15:48:22;8.40;1.00
19017;DHT22;9641;51.494;6.670;2023-02-01T15:50:51;8.40;1.00
19017;DHT22;9641;51.494;6.670;2023-02-01T15:53:19;8.40;1.00
19017;DHT22;9641;51.494;6.670;2023-02-01T15:55:51;8.40;12.70
19017;DHT22;9641;51.494;6.670;2023-02-01T15:58:20;8.40;58.80
19017;DHT22;9641;51.494;6.670;2023-02-01T16:00:50;8.40;93.00
19017;DHT22;9641;51.494;6.670;2023-02-01T16:03:28;8.40;18.10
19017;DHT22;9641;51.494;6.670;2023-02-01T16:06:01;8.40;4.40
19017;DHT22;9641;51.494;6.670;2023-02-01T16:08:32;8.40;99.90
19017;DHT22;9641;51.494;6.670;2023-02-01T16:11:23;8.30;99.90
19017;DHT22;9641;51.494;6.670;2023-02-01T16:13:51;8.30;1.00
19017;DHT22;9641;51.494;6.670;2023-02-01T16:16:18;8.10;1.00
19017;DHT22;9641;51.494;6.670;2023-02-01T16:18:46;7.70;94.00
19017;DHT22;9641;51.494;6.670;2023-02-01T16:21:13;7.50;99.90
19017;DHT22;9641;51.494;6.670;2023-02-01T16:23:41;7.40;99.90
19017;DHT22;9641;51.494;6.670;2023-02-01T16:26:08;7.30;99.90
19017;DHT22;9641;51.494;6.670;2023-02-01T16:28:35;7.20;99.90
19017;DHT22;9641;51.494;6.670;2023-02-01T16:31:02;7.20;99.90
19017;DHT22;9641;51.494;6.670;2023-02-01T16:33:29;7.30;99.90
19017;DHT22;9641;51.494;6.670;2023-02-01T16:35:58;7.40;99.90
19017;DHT22;9641;51.494;6.670;2023-02-01T16:38:27;7.60;32.60
19017;DHT22;9641;51.494;6.670;2023-02-01T16:40:54;7.60;15.30
19017;DHT22;9641;51.494;6.670;2023-02-01T16:43:24;7.70;1.00
19017;DHT22;9641;51.494;6.670;2023-02-01T16:45:55;7.70;1.00
19017;DHT22;9641;51.494;6.670;2023-02-01T16:48:24;7.80;1.00